GALVESTON 22NM East of Galveston, TX (42035)

Conditions for Saturday

Daily
Weekly
Monthly
Marine Data Graph

Marine & Boating Location Search

Enter a coastal zip code for marine weather.

General Information

Location: 29.232 North -94.413 West
Buoy Type: 3-meter discus buoy
Buoy Hull: 3D54
Payload: ARES 4.4 payload
Owned by: NDBC
Windspeed: Measured by obtained from anemometer
Sea Surface: Measured by Intake

Weather and Wave Data

Time Temp Humidity Wind Dominant Wave Wind Wave Wave Swell Pressure
  Air
(°F)
Water
(°F)
  Dir Speed
(kts)
Speed
(mph)
Period
(sec)
Height
(ft)
Range
(ft)
Period
(sec)
Height
(ft)
Range
(ft)
Period
(sec)
Height
(ft)
Range
(ft)
Atmo.
(in)
Tend.
(in)
20:50 60 77 90 North 25.3 29.1 4 5.25 exactly 5.2 4 4.92 4.10 - 5.74 - - - 30.09 +0.08
21:50 59 77 85 North 23.3 26.8 5 5.25 exactly 5.2 5 4.92 4.10 - 5.74 - - - 30.09 +0.06
22:50 58 77 86 North 25.3 29.1 5 5.91 exactly 5.9 5 6.56 5.74 - 7.38 - - - 30.10 +0.03
23:50 58 77 85 North 23.3 26.8 5 6.23 exactly 6.2 5 6.56 5.74 - 7.38 - - - 30.12 +0.03
00:50 58 77 80 North 25.3 29.1 5 5.25 exactly 5.2 5 4.92 4.10 - 5.74 - - - 30.10 -
01:50 57 77 82 North 25.3 29.1 6 5.25 exactly 5.2 6 4.92 4.10 - 5.74 8 1.64 0.82 - 2.46 30.10 -
02:50 58 77 78 NNE 25.3 29.1 5 4.92 exactly 4.9 5 4.92 4.10 - 5.74 - - - 30.08 -0.04
03:50 58 76 71 NNE 25.3 29.1 5 5.91 exactly 5.9 5 4.92 4.10 - 5.74 - - - 30.07 -0.03
04:50 57 76 70 NNE 25.3 29.1 5 5.91 exactly 5.9 5 6.56 5.74 - 7.38 - - - 30.08 -0.02
05:50 57 76 71 North 23.3 26.8 6 5.91 exactly 5.9 6 6.56 5.74 - 7.38 - - - 30.09 +0.01
06:50 56 76 72 NNE 23.3 26.8 6 5.25 exactly 5.2 6 4.92 4.10 - 5.74 - - - 30.11 +0.04
07:50 55 76 78 North 23.3 26.8 5 4.92 exactly 4.9 5 4.92 4.10 - 5.74 10 1.64 0.82 - 2.46 30.13 +0.05
08:50 54 76 79 North 25.3 29.1 5 4.92 exactly 4.9 5 4.92 4.10 - 5.74 9 1.64 0.82 - 2.46 30.14 +0.04
09:50 55 76 76 North 19.4 22.4 5 4.92 exactly 4.9 5 4.92 4.10 - 5.74 - - - 30.16 +0.05
10:50 55 76 73 North 19.4 22.4 4 4.59 exactly 4.6 4 4.92 4.10 - 5.74 - - - 30.17 +0.04
11:50 56 76 68 North 19.4 22.4 5 4.27 exactly 4.3 5 4.92 4.10 - 5.74 10 1.64 0.82 - 2.46 30.16 +0.02
12:50 59 76 57 North 21.4 24.6 4 3.94 exactly 3.9 4 3.28 2.46 - 4.10 - - - 30.12 -0.04
13:50 60 76 53 North 19.4 22.4 5 3.94 exactly 3.9 5 3.28 2.46 - 4.10 9 1.64 0.82 - 2.46 30.09 -0.08
14:50 62 76 45 North 19.4 22.4 5 3.94 exactly 3.9 5 3.28 2.46 - 4.10 - - - 30.05 -0.10
15:50 63 76 43 North 17.5 20.1 5 3.61 exactly 3.6 5 3.28 2.46 - 4.10 - - - 30.04 -0.08
16:50 64 76 41 North 17.5 20.1 4 3.61 exactly 3.6 4 3.28 2.46 - 4.10 - - - 30.03 -0.05
17:50 64 76 39 North 17.5 20.1 5 3.61 exactly 3.6 5 3.28 2.46 - 4.10 - - - 30.03 -0.03
18:50 64 76 40 North 19.4 22.4 4 3.28 exactly 3.3 4 3.28 2.46 - 4.10 - - - 30.05 +0.01
19:50 63 76 39 North 21.4 24.6 4 3.61 exactly 3.6 4 3.28 2.46 - 4.10 - - - 30.08 +0.05
20:50 62 75 45 North 21.4 24.6 4 3.94 exactly 3.9 4 3.28 2.46 - 4.10 10 1.64 0.82 - 2.46 30.10 +0.07
21:50 61 75 43 North 23.3 26.8 4 3.94 exactly 3.9 4 3.28 2.46 - 4.10 - - - 30.12 +0.06
22:50 60 75 45 North 21.4 24.6 5 4.27 exactly 4.3 5 4.92 4.10 - 5.74 - - - 30.13 +0.05
23:50 60 75 48 NNE 21.4 24.6 5 4.59 exactly 4.6 5 4.92 4.10 - 5.74 - - - 30.14 +0.04
00:50 59 75 46 NNE 21.4 24.6 5 4.27 exactly 4.3 5 4.92 4.10 - 5.74 - - - 30.14 +0.03
01:50 59 75 47 NNE 19.4 22.4 5 3.94 exactly 3.9 5 3.28 2.46 - 4.10 - - - 30.14 +0.01
02:50 58 75 49 NNE 19.4 22.4 5 3.61 exactly 3.6 5 3.28 2.46 - 4.10 - - - 30.14 -
03:50 58 75 49 NNE 19.4 22.4 5 3.61 exactly 3.6 5 3.28 2.46 - 4.10 - - - 30.13 -0.01

Detailed Wave Spectra

Time Water Depth Wave Height Spectral Peak Period Average Wave Period Sampling Interval Wave Record
20:00 141 ft 4.66 ft 4.5 sec 4.2 sec 0.6 sec 2400 sec
21:00 141 ft 5.09 ft 4.3 sec 4.3 sec 0.6 sec 2400 sec
23:00 141 ft 5.97 ft 5.0 sec 4.5 sec 0.6 sec 2400 sec
00:00 141 ft 6.07 ft 5.3 sec 4.6 sec 0.6 sec 2400 sec
01:00 141 ft 5.31 ft 5.0 sec 4.5 sec 0.6 sec 2400 sec
02:00 141 ft 5.12 ft 5.6 sec 4.4 sec 0.6 sec 2400 sec
03:00 141 ft 5.09 ft 5.3 sec 4.3 sec 0.6 sec 2400 sec
04:00 141 ft 5.74 ft 5.3 sec 4.5 sec 0.6 sec 2400 sec
07:00 141 ft 5.09 ft 5.6 sec 4.3 sec 0.6 sec 2400 sec
08:00 141 ft 4.79 ft 5.3 sec 4.3 sec 0.6 sec 2400 sec
09:00 141 ft 4.89 ft 5.3 sec 4.2 sec 0.6 sec 2400 sec
10:00 141 ft 5.02 ft 4.5 sec 4.3 sec 0.6 sec 2400 sec
13:00 141 ft 3.97 ft 4.2 sec 4.2 sec 0.6 sec 2400 sec
14:00 141 ft 3.94 ft 4.8 sec 4.1 sec 0.6 sec 2400 sec
15:00 141 ft 4.07 ft 4.5 sec 4.1 sec 0.6 sec 2400 sec
16:00 141 ft 3.77 ft 4.5 sec 4.1 sec 0.6 sec 2400 sec
17:00 141 ft 3.61 ft 4.3 sec 4.0 sec 0.6 sec 2400 sec
18:00 141 ft 3.54 ft 4.5 sec 3.9 sec 0.6 sec 2400 sec
19:00 141 ft 3.31 ft 4.2 sec 3.8 sec 0.6 sec 2400 sec
20:00 141 ft 3.51 ft 4.3 sec 3.8 sec 0.6 sec 2400 sec
21:00 141 ft 3.94 ft 4.3 sec 4.0 sec 0.6 sec 2400 sec
22:00 141 ft 4.00 ft 4.3 sec 4.0 sec 0.6 sec 2400 sec
23:00 141 ft 4.40 ft 4.8 sec 4.2 sec 0.6 sec 2400 sec
01:00 141 ft 4.20 ft 5.0 sec 4.2 sec 0.6 sec 2400 sec